createdAt,value
2022-08-26T00:02:08.362Z,98788.38
2022-08-26T00:05:15.290Z,98791.49
2022-08-26T00:08:22.562Z,98792.34
2022-08-26T00:11:29.159Z,98789.23
2022-08-26T00:14:35.419Z,98784.92
2022-08-26T00:17:42.063Z,98782.02
2022-08-26T00:20:48.511Z,98780.11
2022-08-26T00:23:55.164Z,98780.50
2022-08-26T00:27:01.429Z,98775.06
2022-08-26T00:30:11.071Z,98776.58
2022-08-26T00:33:17.584Z,98782.02
2022-08-26T00:36:24.898Z,98787.30
2022-08-26T00:39:35.836Z,98786.77
2022-08-26T00:42:46.076Z,98791.71
2022-08-26T00:45:56.851Z,98800.12
2022-08-26T00:49:11.842Z,98798.09
2022-08-26T00:52:21.194Z,98794.55
2022-08-26T00:55:38.054Z,98791.61
2022-08-26T00:58:45.504Z,98793.34
2022-08-26T01:01:52.129Z,98791.19
2022-08-26T01:05:01.329Z,98794.35
2022-08-26T01:08:09.883Z,98794.64
2022-08-26T01:11:16.925Z,98799.88
2022-08-26T01:14:26.405Z,98798.93
2022-08-26T01:17:33.844Z,98798.32
2022-08-26T01:20:48.785Z,98797.55
2022-08-26T01:23:57.467Z,98802.48
2022-08-26T01:27:06.829Z,98803.11
2022-08-26T01:30:15.486Z,98809.19
2022-08-26T01:33:25.600Z,98808.39
2022-08-26T01:36:32.161Z,98809.35
2022-08-26T01:39:40.244Z,98804.54
2022-08-26T01:42:49.289Z,98803.58
2022-08-26T01:45:57.149Z,98804.63
2022-08-26T01:49:07.837Z,98802.77
2022-08-26T01:52:17.857Z,98808.38
2022-08-26T01:55:33.176Z,98805.70
2022-08-26T01:58:41.292Z,98801.13
2022-08-26T02:01:47.876Z,98799.73
2022-08-26T02:04:59.682Z,98800.42
2022-08-26T02:08:06.586Z,98800.70
2022-08-26T02:11:13.561Z,98800.27
2022-08-26T02:14:24.111Z,98800.10
2022-08-26T02:17:38.737Z,98800.78
2022-08-26T02:20:45.102Z,98798.52
2022-08-26T02:23:52.169Z,98796.25
2022-08-26T02:26:59.426Z,98791.85
2022-08-26T02:30:10.371Z,98789.83
2022-08-26T02:33:17.107Z,98792.48
2022-08-26T02:36:25.129Z,98789.48
2022-08-26T02:39:37.035Z,98791.77
2022-08-26T02:42:43.865Z,98787.19
2022-08-26T02:45:50.021Z,98790.27
2022-08-26T02:48:56.360Z,98786.15
2022-08-26T02:52:02.549Z,98787.42
2022-08-26T02:55:10.779Z,98783.95
2022-08-26T02:58:17.041Z,98785.00
2022-08-26T03:01:28.227Z,98782.31
2022-08-26T03:04:34.995Z,98777.52
2022-08-26T03:07:41.424Z,98778.64
2022-08-26T03:10:48.076Z,98777.04
2022-08-26T03:13:55.670Z,98778.39
2022-08-26T03:17:01.886Z,98773.47
2022-08-26T03:20:09.902Z,98773.04
2022-08-26T03:23:16.106Z,98772.90
2022-08-26T03:26:23.185Z,98771.67
2022-08-26T03:29:49.459Z,98775.73
2022-08-26T03:32:57.269Z,98769.15
2022-08-26T03:36:04.166Z,98772.75
2022-08-26T03:39:13.138Z,98769.17
2022-08-26T03:42:21.485Z,98773.77
2022-08-26T03:45:28.200Z,98773.17
2022-08-26T03:48:34.617Z,98771.53
2022-08-26T03:51:41.404Z,98773.37
2022-08-26T03:54:48.314Z,98766.25
2022-08-26T03:57:55.030Z,98768.54
2022-08-26T04:01:02.020Z,98764.29
2022-08-26T04:04:08.641Z,98760.35
2022-08-26T04:07:15.424Z,98763.62
2022-08-26T04:10:28.707Z,98764.68
2022-08-26T04:13:36.228Z,98770.03
2022-08-26T04:16:42.671Z,98774.57
2022-08-26T04:19:49.314Z,98777.98
2022-08-26T04:22:53.770Z,98783.66
2022-08-26T04:26:01.337Z,98782.63
2022-08-26T04:29:09.815Z,98779.57
2022-08-26T04:32:16.453Z,98779.45
2022-08-26T04:35:25.696Z,98780.02
2022-08-26T04:38:32.691Z,98784.01
2022-08-26T04:41:40.156Z,98785.41
2022-08-26T04:44:46.562Z,98781.14
2022-08-26T04:47:56.513Z,98777.87
2022-08-26T04:51:03.315Z,98778.80
2022-08-26T04:54:11.779Z,98778.48
2022-08-26T04:57:17.998Z,98776.35
2022-08-26T05:00:24.986Z,98780.61
2022-08-26T05:03:32.493Z,98778.42
2022-08-26T05:06:38.915Z,98776.86
2022-08-26T05:09:45.529Z,98777.35
2022-08-26T05:12:51.680Z,98781.36
2022-08-26T05:16:01.200Z,98779.95
2022-08-26T05:19:08.567Z,98780.20
2022-08-26T05:22:15.013Z,98775.69
2022-08-26T05:25:21.390Z,98771.69
2022-08-26T05:28:29.749Z,98775.61
2022-08-26T05:31:36.954Z,98776.98
2022-08-26T05:34:43.134Z,98774.12
2022-08-26T05:37:49.404Z,98774.09
2022-08-26T05:40:55.559Z,98779.75
2022-08-26T05:44:03.574Z,98774.08
2022-08-26T05:47:09.893Z,98776.67
2022-08-26T05:50:16.130Z,98775.74
2022-08-26T05:53:23.992Z,98779.63
2022-08-26T05:56:32.783Z,98775.61
2022-08-26T05:59:38.942Z,98768.58
2022-08-26T06:02:45.104Z,98771.91
2022-08-26T06:05:54.891Z,98767.55
2022-08-26T06:09:02.202Z,98765.05
2022-08-26T06:12:08.987Z,98767.31
2022-08-26T06:15:15.746Z,98767.00
2022-08-26T06:18:24.003Z,98768.58
2022-08-26T06:21:34.238Z,98771.34
2022-08-26T06:24:58.087Z,98767.61
2022-08-26T06:28:05.563Z,98764.81
2022-08-26T06:31:11.863Z,98766.96
2022-08-26T06:34:18.111Z,98764.41
2022-08-26T06:37:24.246Z,98768.58
2022-08-26T06:40:31.279Z,98769.89
2022-08-26T06:43:37.569Z,98767.06
2022-08-26T06:46:44.402Z,98761.61
2022-08-26T06:49:51.046Z,98767.26
2022-08-26T06:52:56.980Z,98761.11
2022-08-26T06:56:06.947Z,98760.21
2022-08-26T06:59:15.458Z,98762.06
2022-08-26T07:02:21.756Z,98759.47
2022-08-26T07:05:28.083Z,98757.43
2022-08-26T07:08:35.977Z,98756.02
2022-08-26T07:11:42.524Z,98752.47
2022-08-26T07:14:48.698Z,98751.03
2022-08-26T07:17:54.865Z,98752.09
2022-08-26T07:21:03.858Z,98759.02
2022-08-26T07:24:11.297Z,98755.41
2022-08-26T07:27:18.719Z,98753.59
2022-08-26T07:30:25.972Z,98757.40
2022-08-26T07:33:32.328Z,98753.83
2022-08-26T07:36:39.585Z,98752.61
2022-08-26T07:39:45.902Z,98745.15
2022-08-26T07:42:53.074Z,98741.09
2022-08-26T07:45:59.347Z,98736.52
2022-08-26T07:49:05.849Z,98734.41
2022-08-26T07:52:12.878Z,98733.98
2022-08-26T07:55:19.634Z,98727.33
2022-08-26T07:58:25.824Z,98724.32
2022-08-26T08:01:32.243Z,98722.48
2022-08-26T08:04:39.439Z,98724.45
2022-08-26T08:07:45.887Z,98724.94
2022-08-26T08:10:52.787Z,98719.02
2022-08-26T08:14:01.150Z,98715.06
2022-08-26T08:17:07.571Z,98712.33
2022-08-26T08:20:15.719Z,98706.92
2022-08-26T08:23:21.892Z,98709.73
2022-08-26T08:26:30.183Z,98704.06
2022-08-26T08:29:37.419Z,98703.70
2022-08-26T08:32:44.533Z,98698.77
2022-08-26T08:35:50.910Z,98694.95
2022-08-26T08:38:57.073Z,98690.45
2022-08-26T08:42:31.359Z,98688.66
2022-08-26T08:45:41.034Z,98688.02
2022-08-26T08:48:52.788Z,98689.38
2022-08-26T08:52:06.746Z,98688.40
2022-08-26T08:55:18.014Z,98690.34
2022-08-26T08:58:29.085Z,98689.80
2022-08-26T09:01:48.221Z,98688.67
2022-08-26T09:05:14.914Z,98685.50
2022-08-26T09:08:28.616Z,98689.16
2022-08-26T09:11:36.397Z,98687.69
2022-08-26T09:14:51.119Z,98685.48
2022-08-26T09:18:06.633Z,98685.41
2022-08-26T09:21:17.916Z,98684.25
2022-08-26T09:24:24.218Z,98680.82
2022-08-26T09:27:44.614Z,98676.88
2022-08-26T09:31:03.509Z,98678.59
2022-08-26T09:34:19.379Z,98677.79
2022-08-26T09:37:41.728Z,98677.15
2022-08-26T09:40:59.437Z,98676.84
2022-08-26T09:44:28.494Z,98674.04
2022-08-26T09:47:39.350Z,98665.50
2022-08-26T09:50:57.055Z,98661.89
2022-08-26T09:54:05.770Z,98665.73
2022-08-26T09:57:21.044Z,98659.16
2022-08-26T10:00:34.831Z,98650.40
2022-08-26T10:03:45.351Z,98646.27
2022-08-26T10:07:00.881Z,98644.48
2022-08-26T10:10:12.094Z,98644.20
2022-08-26T10:13:24.459Z,98642.64
2022-08-26T10:16:36.187Z,98645.73
2022-08-26T10:19:56.868Z,98645.59
2022-08-26T10:23:06.594Z,98635.37
2022-08-26T10:26:17.899Z,98640.23
2022-08-26T10:29:30.976Z,98632.05
2022-08-26T10:32:42.351Z,98633.29
2022-08-26T10:35:53.214Z,98627.40
2022-08-26T10:39:04.854Z,98629.11
2022-08-26T10:42:16.235Z,98630.05
2022-08-26T10:45:25.660Z,98621.44
2022-08-26T10:48:43.021Z,98620.30
2022-08-26T10:51:58.075Z,98622.46
2022-08-26T10:55:10.423Z,98615.06
2022-08-26T10:58:37.920Z,98616.20
2022-08-26T11:01:52.589Z,98616.55
2022-08-26T11:05:03.122Z,98611.75
2022-08-26T11:08:32.863Z,98613.23
2022-08-26T11:11:48.982Z,98606.55
2022-08-26T11:14:58.714Z,98608.70
2022-08-26T11:18:08.131Z,98605.10
2022-08-26T11:21:49.560Z,98599.61
2022-08-26T11:25:16.399Z,98594.14
2022-08-26T11:28:37.542Z,98595.04
2022-08-26T11:31:58.723Z,98591.83
2022-08-26T11:35:08.306Z,98587.78
2022-08-26T11:38:23.220Z,98585.19
2022-08-26T11:41:31.463Z,98577.55
2022-08-26T11:44:49.073Z,98579.55
2022-08-26T11:47:55.946Z,98578.40
2022-08-26T11:51:05.149Z,98575.69
2022-08-26T11:54:17.702Z,98576.98
2022-08-26T11:57:43.562Z,98574.48
2022-08-26T12:00:58.497Z,98570.80
2022-08-26T12:04:07.615Z,98561.70
2022-08-26T12:07:13.723Z,98559.33
2022-08-26T12:10:30.770Z,98555.13
2022-08-26T12:13:39.255Z,98550.43
2022-08-26T12:16:45.701Z,98551.66
2022-08-26T12:19:52.098Z,98548.73
2022-08-26T12:22:59.275Z,98544.66
2022-08-26T12:26:14.730Z,98545.27
2022-08-26T12:29:29.259Z,98546.00
2022-08-26T12:32:36.396Z,98543.11
2022-08-26T12:35:43.354Z,98542.98
2022-08-26T12:38:50.126Z,98544.20
2022-08-26T12:41:58.115Z,98543.12
2022-08-26T12:45:07.025Z,98541.37
2022-08-26T12:48:14.997Z,98537.42
2022-08-26T12:51:25.985Z,98533.52
2022-08-26T12:54:46.162Z,98530.02
2022-08-26T12:58:10.958Z,98526.49
2022-08-26T13:01:24.558Z,98521.95
2022-08-26T13:04:39.501Z,98521.96
2022-08-26T13:07:44.030Z,98517.39
2022-08-26T13:11:03.153Z,98517.66
2022-08-26T13:14:15.870Z,98516.08
2022-08-26T13:17:31.204Z,98512.01
2022-08-26T13:20:44.290Z,98508.34
2022-08-26T13:23:51.584Z,98506.16
2022-08-26T13:26:57.826Z,98507.48
2022-08-26T13:30:04.061Z,98507.05
2022-08-26T13:33:12.264Z,98503.58
2022-08-26T13:36:20.931Z,98501.86
2022-08-26T13:39:27.770Z,98504.02
2022-08-26T13:42:34.371Z,98500.00
2022-08-26T13:45:41.096Z,98500.19
2022-08-26T13:48:47.362Z,98498.47
2022-08-26T13:51:53.441Z,98499.06
2022-08-26T13:55:00.184Z,98494.67
2022-08-26T13:58:06.695Z,98497.67
2022-08-26T14:01:13.390Z,98493.63
2022-08-26T14:04:22.453Z,98498.57
2022-08-26T14:07:33.741Z,98492.70
2022-08-26T14:10:40.019Z,98489.29
2022-08-26T14:13:46.312Z,98487.55
2022-08-26T14:17:00.091Z,98488.11
2022-08-26T14:20:09.339Z,98485.84
2022-08-26T14:23:16.164Z,98487.42
2022-08-26T14:26:29.134Z,98483.39
2022-08-26T14:29:36.031Z,98486.63
2022-08-26T14:32:46.007Z,98489.34
2022-08-26T14:35:52.245Z,98488.54
2022-08-26T14:39:00.905Z,98484.73
2022-08-26T14:42:09.169Z,98486.39
2022-08-26T14:45:19.585Z,98482.19
2022-08-26T14:48:25.720Z,98480.39
2022-08-26T14:51:32.049Z,98483.56
2022-08-26T14:54:38.927Z,98485.63
2022-08-26T14:57:45.681Z,98487.17
2022-08-26T15:00:51.932Z,98488.34
2022-08-26T15:03:58.261Z,98487.02
2022-08-26T15:07:05.266Z,98488.17
2022-08-26T15:10:14.094Z,98491.09
2022-08-26T15:13:20.326Z,98495.02
2022-08-26T15:16:27.419Z,98491.88
2022-08-26T15:19:33.773Z,98493.81
2022-08-26T15:22:43.383Z,98494.05
2022-08-26T15:25:49.560Z,98491.69
2022-08-26T15:28:55.798Z,98490.66
2022-08-26T15:32:01.994Z,98492.52
2022-08-26T15:35:09.910Z,98494.66
2022-08-26T15:38:16.120Z,98490.14
2022-08-26T15:41:22.341Z,98490.32
2022-08-26T15:44:28.806Z,98487.96
2022-08-26T15:47:35.480Z,98486.33
2022-08-26T15:51:02.668Z,98490.20
2022-08-26T15:54:10.360Z,98486.25
2022-08-26T15:57:19.123Z,98488.41
2022-08-26T16:00:27.263Z,98487.38
2022-08-26T16:03:33.541Z,98486.11
2022-08-26T16:06:41.222Z,98488.04
2022-08-26T16:09:49.197Z,98484.42
2022-08-26T16:13:00.406Z,98480.77
2022-08-26T16:16:07.197Z,98483.32
2022-08-26T16:19:13.752Z,98480.75
2022-08-26T16:22:20.054Z,98477.89
2022-08-26T16:25:29.181Z,98473.52
2022-08-26T16:28:35.386Z,98474.80
2022-08-26T16:31:42.272Z,98474.05
2022-08-26T16:34:56.187Z,98470.44
2022-08-26T16:38:03.194Z,98466.76
2022-08-26T16:41:10.460Z,98463.05
2022-08-26T16:44:16.804Z,98462.62
2022-08-26T16:47:23.329Z,98465.39
2022-08-26T16:50:30.258Z,98466.01
2022-08-26T16:53:36.301Z,98464.88
2022-08-26T16:56:42.580Z,98467.35
2022-08-26T16:59:48.728Z,98465.96
2022-08-26T17:02:55.137Z,98464.63
2022-08-26T17:06:01.550Z,98468.00
2022-08-26T17:09:07.909Z,98470.98
2022-08-26T17:12:14.159Z,98472.20
2022-08-26T17:15:22.250Z,98471.65
2022-08-26T17:18:30.721Z,98468.88
2022-08-26T17:21:38.224Z,98467.08
2022-08-26T17:24:44.822Z,98461.77
2022-08-26T17:27:51.063Z,98459.92
2022-08-26T17:30:59.385Z,98458.33
2022-08-26T17:34:06.203Z,98456.55
2022-08-26T17:37:12.411Z,98458.73
2022-08-26T17:40:21.677Z,98456.11
2022-08-26T17:43:28.228Z,98456.75
2022-08-26T17:46:38.155Z,98462.61
2022-08-26T17:49:44.526Z,98466.41
2022-08-26T17:52:50.756Z,98463.08
2022-08-26T17:55:57.223Z,98467.31
2022-08-26T17:59:04.176Z,98469.17
2022-08-26T18:02:10.866Z,98467.14
2022-08-26T18:05:18.237Z,98466.95
2022-08-26T18:08:24.774Z,98466.63
2022-08-26T18:11:32.137Z,98464.79
2022-08-26T18:14:38.462Z,98467.33
2022-08-26T18:17:45.263Z,98474.63
2022-08-26T18:20:51.879Z,98473.38
2022-08-26T18:24:13.350Z,98475.77
2022-08-26T18:27:20.266Z,98474.95
2022-08-26T18:30:26.635Z,98478.27
2022-08-26T18:33:32.865Z,98482.27
2022-08-26T18:36:40.206Z,98480.27
2022-08-26T18:39:46.281Z,98477.39
2022-08-26T18:42:53.971Z,98476.66
2022-08-26T18:46:06.863Z,98476.58
2022-08-26T18:49:14.418Z,98476.10
2022-08-26T18:52:20.604Z,98477.91
2022-08-26T18:55:27.525Z,98476.42
2022-08-26T18:58:33.626Z,98477.75
2022-08-26T19:01:41.421Z,98483.88
2022-08-26T19:04:47.614Z,98479.38
2022-08-26T19:07:53.766Z,98479.42
2022-08-26T19:11:00.859Z,98476.76
2022-08-26T19:14:08.346Z,98480.46
2022-08-26T19:17:14.576Z,98474.90
2022-08-26T19:20:21.022Z,98473.11
2022-08-26T19:23:32.089Z,98475.38
2022-08-26T19:26:39.175Z,98479.89
2022-08-26T19:29:46.911Z,98480.25
2022-08-26T19:32:53.144Z,98482.48
2022-08-26T19:35:59.298Z,98478.44
2022-08-26T19:39:06.405Z,98478.19
2022-08-26T19:42:14.137Z,98475.65
2022-08-26T19:45:25.367Z,98479.48
2022-08-26T19:48:31.958Z,98483.98
2022-08-26T19:51:38.382Z,98481.63
2022-08-26T19:54:44.563Z,98484.89
2022-08-26T19:57:52.482Z,98485.90
2022-08-26T20:00:58.603Z,98490.13
2022-08-26T20:04:05.257Z,98488.41
2022-08-26T20:07:15.293Z,98487.53
2022-08-26T20:10:25.829Z,98486.69
2022-08-26T20:13:32.324Z,98491.58
2022-08-26T20:16:38.690Z,98489.91
2022-08-26T20:20:02.593Z,98487.54
2022-08-26T20:23:08.820Z,98492.27
2022-08-26T20:26:15.117Z,98488.78
2022-08-26T20:29:22.465Z,98493.91
2022-08-26T20:32:31.588Z,98490.88
2022-08-26T20:35:41.290Z,98494.90
2022-08-26T20:38:47.530Z,98500.85
2022-08-26T20:41:53.701Z,98503.20
2022-08-26T20:44:59.969Z,98502.65
2022-08-26T20:48:06.606Z,98505.08
2022-08-26T20:51:13.208Z,98510.94
2022-08-26T20:54:22.979Z,98518.55
2022-08-26T20:57:31.551Z,98520.34
2022-08-26T21:00:38.613Z,98518.66
2022-08-26T21:03:45.003Z,98517.16
2022-08-26T21:06:53.151Z,98514.34
2022-08-26T21:09:59.731Z,98516.56
2022-08-26T21:13:06.242Z,98516.91
2022-08-26T21:16:12.770Z,98515.67
2022-08-26T21:19:20.113Z,98515.52
2022-08-26T21:22:26.657Z,98512.57
2022-08-26T21:25:32.893Z,98514.80
2022-08-26T21:28:40.253Z,98516.74
2022-08-26T21:31:47.054Z,98517.19
2022-08-26T21:34:57.981Z,98518.20
2022-08-26T21:38:04.429Z,98519.01
2022-08-26T21:41:13.293Z,98519.77
2022-08-26T21:44:20.845Z,98522.73
2022-08-26T21:47:27.357Z,98521.29
2022-08-26T21:50:33.577Z,98521.56
2022-08-26T21:53:40.113Z,98517.33
2022-08-26T21:56:48.278Z,98516.91
2022-08-26T21:59:54.646Z,98517.84
2022-08-26T22:03:00.922Z,98518.20
2022-08-26T22:06:07.937Z,98526.39
2022-08-26T22:09:15.729Z,98525.86
2022-08-26T22:12:21.953Z,98523.31
2022-08-26T22:15:28.240Z,98523.23
2022-08-26T22:18:34.999Z,98518.96
2022-08-26T22:21:41.237Z,98515.20
2022-08-26T22:24:47.692Z,98517.95
2022-08-26T22:27:53.944Z,98518.80
2022-08-26T22:31:00.654Z,98516.29
2022-08-26T22:34:08.033Z,98516.45
2022-08-26T22:37:14.297Z,98517.64
2022-08-26T22:40:20.882Z,98515.65
2022-08-26T22:43:28.900Z,98516.92
2022-08-26T22:46:36.914Z,98515.66
2022-08-26T22:49:43.065Z,98514.13
2022-08-26T22:52:49.267Z,98514.45
2022-08-26T22:55:55.550Z,98515.56
2022-08-26T22:59:01.815Z,98510.40
2022-08-26T23:02:08.249Z,98508.04
2022-08-26T23:05:18.286Z,98508.17
2022-08-26T23:08:25.924Z,98507.31
2022-08-26T23:11:32.138Z,98508.08
2022-08-26T23:14:40.769Z,98506.42
2022-08-26T23:17:47.269Z,98507.52
2022-08-26T23:21:02.202Z,98505.38
2022-08-26T23:24:10.079Z,98500.90
2022-08-26T23:27:16.834Z,98502.98
2022-08-26T23:30:26.196Z,98500.42
2022-08-26T23:33:46.289Z,98496.30
2022-08-26T23:36:53.841Z,98494.54
2022-08-26T23:40:03.465Z,98491.17
2022-08-26T23:43:12.556Z,98488.58
2022-08-26T23:46:18.894Z,98488.11
2022-08-26T23:49:25.485Z,98483.58
2022-08-26T23:52:49.802Z,98482.66
2022-08-26T23:55:56.156Z,98477.82
2022-08-26T23:59:02.422Z,98479.34
